createdAt,value
2022-08-30T00:00:00.430Z,1022.99
2022-08-30T00:01:00.577Z,1022.99
2022-08-30T00:02:00.788Z,1022.99
2022-08-30T00:03:01.151Z,1023.02
2022-08-30T00:04:01.193Z,1022.99
2022-08-30T00:05:01.307Z,1022.99
2022-08-30T00:06:01.525Z,1022.98
2022-08-30T00:07:01.657Z,1023.00
2022-08-30T00:08:01.848Z,1022.99
2022-08-30T00:09:02.017Z,1023.01
2022-08-30T00:10:02.186Z,1023.01
2022-08-30T00:11:02.347Z,1023.09
2022-08-30T00:12:02.547Z,1023.03
2022-08-30T00:13:02.708Z,1023.02
2022-08-30T00:14:02.877Z,1023.06
2022-08-30T00:15:03.037Z,1023.04
2022-08-30T00:16:03.287Z,1023.03
2022-08-30T00:17:03.377Z,1023.05
2022-08-30T00:18:03.537Z,1023.03
2022-08-30T00:19:03.859Z,1023.01
2022-08-30T00:20:03.879Z,1023.03
2022-08-30T00:21:04.047Z,1023.01
2022-08-30T00:22:04.208Z,1023.03
2022-08-30T00:23:04.368Z,1023.07
2022-08-30T00:24:04.547Z,1023.05
2022-08-30T00:25:04.710Z,1023.06
2022-08-30T00:26:04.899Z,1023.07
2022-08-30T00:27:05.050Z,1023.06
2022-08-30T00:28:05.245Z,1023.10
2022-08-30T00:29:05.408Z,1023.11
2022-08-30T00:30:05.579Z,1023.08
2022-08-30T00:31:05.800Z,1023.12
2022-08-30T00:32:05.907Z,1023.13
2022-08-30T00:33:06.084Z,1023.12
2022-08-30T00:34:06.238Z,1023.10
2022-08-30T00:35:06.398Z,1023.10
2022-08-30T00:36:06.589Z,1023.09
2022-08-30T00:37:06.738Z,1023.07
2022-08-30T00:38:06.954Z,1023.05
2022-08-30T00:39:07.111Z,1023.03
2022-08-30T00:40:07.314Z,1023.06
2022-08-30T00:41:07.428Z,1023.04
2022-08-30T00:42:07.599Z,1023.05
2022-08-30T00:43:07.778Z,1023.02
2022-08-30T00:44:07.939Z,1022.99
2022-08-30T00:45:08.099Z,1022.99
2022-08-30T00:46:08.803Z,1023.02
2022-08-30T00:47:08.458Z,1023.01
2022-08-30T00:48:08.668Z,1023.03
2022-08-30T00:49:08.830Z,1023.05
2022-08-30T00:50:08.989Z,1023.02
2022-08-30T00:51:09.139Z,1023.04
2022-08-30T00:52:09.330Z,1023.06
2022-08-30T00:53:09.545Z,1023.10
2022-08-30T00:54:09.669Z,1023.05
2022-08-30T00:55:09.880Z,1023.08
2022-08-30T00:56:10.032Z,1023.02
2022-08-30T00:57:10.189Z,1023.06
2022-08-30T00:58:10.389Z,1023.06
2022-08-30T00:59:10.556Z,1023.07
2022-08-30T01:00:10.712Z,1023.06
2022-08-30T01:01:10.908Z,1023.08
2022-08-30T01:02:11.058Z,1023.13
2022-08-30T01:03:11.229Z,1023.10
2022-08-30T01:04:11.391Z,1023.12
2022-08-30T01:05:11.559Z,1023.12
2022-08-30T01:06:11.766Z,1023.13
2022-08-30T01:07:11.902Z,1023.13
2022-08-30T01:08:12.120Z,1023.12
2022-08-30T01:09:12.281Z,1023.15
2022-08-30T01:10:12.479Z,1023.13
2022-08-30T01:11:12.630Z,1023.14
2022-08-30T01:12:12.827Z,1023.13
2022-08-30T01:13:13.064Z,1023.15
2022-08-30T01:14:13.139Z,1023.19
2022-08-30T01:15:13.293Z,1023.17
2022-08-30T01:16:13.519Z,1023.21
2022-08-30T01:17:13.650Z,1023.19
2022-08-30T01:18:13.831Z,1023.16
2022-08-30T01:19:13.987Z,1023.20
2022-08-30T01:20:14.186Z,1023.15
2022-08-30T01:21:14.341Z,1023.21
2022-08-30T01:22:14.500Z,1023.19
2022-08-30T01:23:14.967Z,1023.18
2022-08-30T01:24:14.850Z,1023.20
2022-08-30T01:25:15.000Z,1023.22
2022-08-30T01:26:15.971Z,1023.23
2022-08-30T01:27:15.390Z,1023.22
2022-08-30T01:28:15.571Z,1023.20
2022-08-30T01:29:15.720Z,1023.19
2022-08-30T01:30:15.921Z,1023.25
2022-08-30T01:31:16.152Z,1023.22
2022-08-30T01:32:20.740Z,1023.21
2022-08-30T01:33:16.593Z,1023.20
2022-08-30T01:34:16.592Z,1023.27
2022-08-30T01:35:16.761Z,1023.25
2022-08-30T01:36:16.921Z,1023.26
2022-08-30T01:37:17.085Z,1023.27
2022-08-30T01:38:17.261Z,1023.26
2022-08-30T01:39:17.423Z,1023.25
2022-08-30T01:40:17.621Z,1023.27
2022-08-30T01:41:17.751Z,1023.28
2022-08-30T01:42:17.946Z,1023.22
2022-08-30T01:43:18.280Z,1023.22
2022-08-30T01:44:18.331Z,1023.22
2022-08-30T01:45:18.481Z,1023.22
2022-08-30T01:46:18.703Z,1023.20
2022-08-30T01:47:18.861Z,1023.22
2022-08-30T01:48:19.040Z,1023.21
2022-08-30T01:49:27.512Z,1023.21
2022-08-30T01:50:20.371Z,1023.22
2022-08-30T01:51:19.552Z,1023.19
2022-08-30T01:52:19.745Z,1023.22
2022-08-30T01:53:19.913Z,1023.18
2022-08-30T01:54:20.072Z,1023.17
2022-08-30T01:55:21.252Z,1023.16
2022-08-30T01:56:20.412Z,1023.15
2022-08-30T01:57:20.581Z,1023.14
2022-08-30T01:58:20.762Z,1023.17
2022-08-30T01:59:20.932Z,1023.15
2022-08-30T02:00:21.082Z,1023.17
2022-08-30T02:01:21.281Z,1023.17
2022-08-30T02:02:21.432Z,1023.18
2022-08-30T02:03:21.648Z,1023.21
2022-08-30T02:04:21.774Z,1023.20
2022-08-30T02:05:21.923Z,1023.16
2022-08-30T02:06:22.114Z,1023.19
2022-08-30T02:07:22.283Z,1023.23
2022-08-30T02:08:22.452Z,1023.17
2022-08-30T02:09:22.613Z,1023.22
2022-08-30T02:10:22.798Z,1023.19
2022-08-30T02:11:22.944Z,1023.23
2022-08-30T02:12:23.111Z,1023.20
2022-08-30T02:13:23.275Z,1023.18
2022-08-30T02:14:23.433Z,1023.16
2022-08-30T02:15:23.612Z,1023.18
2022-08-30T02:16:23.838Z,1023.12
2022-08-30T02:17:23.961Z,1023.13
2022-08-30T02:18:24.182Z,1023.16
2022-08-30T02:19:24.332Z,1023.11
2022-08-30T02:20:24.530Z,1023.09
2022-08-30T02:21:24.682Z,1023.11
2022-08-30T02:22:24.845Z,1023.11
2022-08-30T02:23:25.026Z,1023.11
2022-08-30T02:24:25.192Z,1023.10
2022-08-30T02:25:25.368Z,1023.08
2022-08-30T02:26:25.554Z,1023.08
2022-08-30T02:27:25.703Z,1023.08
2022-08-30T02:28:25.922Z,1023.11
2022-08-30T02:29:26.083Z,1023.08
2022-08-30T02:30:26.266Z,1023.08
2022-08-30T02:31:26.403Z,1023.09
2022-08-30T02:32:26.601Z,1023.09
2022-08-30T02:33:26.764Z,1023.11
2022-08-30T02:34:26.932Z,1023.08
2022-08-30T02:35:27.083Z,1023.10
2022-08-30T02:36:27.274Z,1023.08
2022-08-30T02:37:27.434Z,1023.13
2022-08-30T02:38:27.615Z,1023.14
2022-08-30T02:39:27.774Z,1023.13
2022-08-30T02:40:27.972Z,1023.17
2022-08-30T02:41:28.113Z,1023.15
2022-08-30T02:42:28.294Z,1023.16
2022-08-30T02:43:28.464Z,1023.17
2022-08-30T02:44:28.624Z,1023.14
2022-08-30T02:45:28.794Z,1023.15
2022-08-30T02:46:33.327Z,1023.12
2022-08-30T02:47:30.133Z,1023.15
2022-08-30T02:48:29.344Z,1023.10
2022-08-30T02:49:33.560Z,1023.13
2022-08-30T02:50:29.693Z,1023.11
2022-08-30T02:51:29.876Z,1023.11
2022-08-30T02:52:30.033Z,1023.09
2022-08-30T02:53:30.213Z,1023.10
2022-08-30T02:54:30.382Z,1023.12
2022-08-30T02:55:30.564Z,1023.08
2022-08-30T02:56:30.744Z,1023.09
2022-08-30T02:57:30.906Z,1023.10
2022-08-30T02:58:31.124Z,1023.10
2022-08-30T02:59:31.282Z,1023.14
2022-08-30T03:00:31.459Z,1023.16
2022-08-30T03:01:31.640Z,1023.16
2022-08-30T03:02:31.804Z,1023.15
2022-08-30T03:03:32.029Z,1023.12
2022-08-30T03:04:32.126Z,1023.12
2022-08-30T03:05:32.274Z,1023.13
2022-08-30T03:06:32.484Z,1023.12
2022-08-30T03:07:32.654Z,1023.07
2022-08-30T03:08:32.815Z,1023.09
2022-08-30T03:09:32.984Z,1023.09
2022-08-30T03:10:33.166Z,1023.10
2022-08-30T03:11:33.324Z,1023.11
2022-08-30T03:12:33.506Z,1023.11
2022-08-30T03:13:33.667Z,1023.09
2022-08-30T03:14:33.825Z,1023.10
2022-08-30T03:15:33.985Z,1023.08
2022-08-30T03:16:34.196Z,1023.06
2022-08-30T03:17:34.358Z,1023.07
2022-08-30T03:18:34.515Z,1023.04
2022-08-30T03:19:34.768Z,1023.04
2022-08-30T03:20:34.865Z,1023.08
2022-08-30T03:21:35.025Z,1023.06
2022-08-30T03:22:35.213Z,1023.03
2022-08-30T03:23:35.366Z,1023.07
2022-08-30T03:24:35.541Z,1023.10
2022-08-30T03:25:35.702Z,1023.00
2022-08-30T03:26:35.859Z,1023.05
2022-08-30T03:27:36.037Z,1023.06
2022-08-30T03:28:36.195Z,1023.10
2022-08-30T03:29:36.366Z,1023.05
2022-08-30T03:30:36.525Z,1023.10
2022-08-30T03:31:40.678Z,1023.10
2022-08-30T03:32:37.885Z,1023.14
2022-08-30T03:33:37.036Z,1023.15
2022-08-30T03:34:37.194Z,1023.16
2022-08-30T03:35:37.393Z,1023.18
2022-08-30T03:36:37.564Z,1023.19
2022-08-30T03:37:37.745Z,1023.18
2022-08-30T03:38:37.895Z,1023.19
2022-08-30T03:39:38.087Z,1023.24
2022-08-30T03:40:38.298Z,1023.19
2022-08-30T03:41:38.426Z,1023.21
2022-08-30T03:42:38.609Z,1023.22
2022-08-30T03:43:38.756Z,1023.23
2022-08-30T03:44:38.916Z,1023.26
2022-08-30T03:45:39.141Z,1023.22
2022-08-30T03:46:39.266Z,1023.26
2022-08-30T03:47:39.445Z,1023.27
2022-08-30T03:48:39.606Z,1023.27
2022-08-30T03:49:39.809Z,1023.30
2022-08-30T03:50:39.967Z,1023.29
2022-08-30T03:51:40.136Z,1023.31
2022-08-30T03:52:40.348Z,1023.31
2022-08-30T03:53:40.496Z,1023.34
2022-08-30T03:54:40.673Z,1023.35
2022-08-30T03:55:40.854Z,1023.39
2022-08-30T03:56:41.027Z,1023.42
2022-08-30T03:57:42.203Z,1023.42
2022-08-30T03:58:41.376Z,1023.45
2022-08-30T03:59:41.555Z,1023.45
2022-08-30T04:00:41.803Z,1023.43
2022-08-30T04:01:41.930Z,1023.42
2022-08-30T04:02:42.187Z,1023.44
2022-08-30T04:03:42.364Z,1023.39
2022-08-30T04:04:42.455Z,1023.41
2022-08-30T04:05:42.626Z,1023.45
2022-08-30T04:06:42.806Z,1023.44
2022-08-30T04:07:43.007Z,1023.44
2022-08-30T04:08:43.176Z,1023.46
2022-08-30T04:09:43.365Z,1023.51
2022-08-30T04:10:43.546Z,1023.48
2022-08-30T04:11:43.757Z,1023.49
2022-08-30T04:12:48.895Z,1023.49
2022-08-30T04:13:45.095Z,1023.51
2022-08-30T04:14:44.276Z,1023.50
2022-08-30T04:15:44.478Z,1023.55
2022-08-30T04:16:44.718Z,1023.51
2022-08-30T04:17:44.913Z,1023.47
2022-08-30T04:18:45.015Z,1023.50
2022-08-30T04:19:45.204Z,1023.51
2022-08-30T04:20:45.356Z,1023.50
2022-08-30T04:21:45.555Z,1023.49
2022-08-30T04:22:45.698Z,1023.50
2022-08-30T04:23:45.877Z,1023.50
2022-08-30T04:24:46.035Z,1023.51
2022-08-30T04:25:46.213Z,1023.51
2022-08-30T04:26:46.377Z,1023.52
2022-08-30T04:27:46.544Z,1023.53
2022-08-30T04:28:46.722Z,1023.50
2022-08-30T04:29:46.937Z,1023.53
2022-08-30T04:30:47.067Z,1023.51
2022-08-30T04:31:47.323Z,1023.54
2022-08-30T04:32:47.417Z,1023.51
2022-08-30T04:33:47.600Z,1023.54
2022-08-30T04:34:47.786Z,1023.52
2022-08-30T04:35:47.938Z,1023.54
2022-08-30T04:36:48.504Z,1023.53
2022-08-30T04:37:48.297Z,1023.55
2022-08-30T04:38:48.477Z,1023.51
2022-08-30T04:39:48.647Z,1023.48
2022-08-30T04:40:48.825Z,1023.46
2022-08-30T04:41:49.028Z,1023.52
2022-08-30T04:42:49.244Z,1023.54
2022-08-30T04:43:49.358Z,1023.48
2022-08-30T04:44:49.550Z,1023.52
2022-08-30T04:45:49.788Z,1023.50
2022-08-30T04:46:49.886Z,1023.53
2022-08-30T04:47:50.047Z,1023.55
2022-08-30T04:48:50.207Z,1023.51
2022-08-30T04:49:50.377Z,1023.57
2022-08-30T04:50:50.553Z,1023.58
2022-08-30T04:51:50.725Z,1023.58
2022-08-30T04:52:50.880Z,1023.57
2022-08-30T04:53:51.057Z,1023.56
2022-08-30T04:54:51.226Z,1023.62
2022-08-30T04:55:51.416Z,1023.58
2022-08-30T04:56:51.576Z,1023.57
2022-08-30T04:57:51.792Z,1023.62
2022-08-30T04:58:51.929Z,1023.63
2022-08-30T04:59:52.152Z,1023.62
2022-08-30T05:00:52.281Z,1023.60
2022-08-30T05:01:52.485Z,1023.60
2022-08-30T05:02:52.597Z,1023.62
2022-08-30T05:03:52.807Z,1023.65
2022-08-30T05:04:52.947Z,1023.68
2022-08-30T05:05:53.146Z,1023.62
2022-08-30T05:06:53.308Z,1023.68
2022-08-30T05:07:53.455Z,1023.71
2022-08-30T05:08:53.628Z,1023.72
2022-08-30T05:09:53.809Z,1023.69
2022-08-30T05:10:53.978Z,1023.69
2022-08-30T05:11:54.160Z,1023.68
2022-08-30T05:12:54.325Z,1023.71
2022-08-30T05:13:54.519Z,1023.72
2022-08-30T05:14:54.668Z,1023.76
2022-08-30T05:15:54.898Z,1023.69
2022-08-30T05:16:55.019Z,1023.73
2022-08-30T05:17:55.200Z,1023.76
2022-08-30T05:18:55.378Z,1023.74
2022-08-30T05:19:55.558Z,1023.74
2022-08-30T05:20:55.760Z,1023.75
2022-08-30T05:21:55.908Z,1023.75
2022-08-30T05:22:56.086Z,1023.75
2022-08-30T05:23:56.280Z,1023.76
2022-08-30T05:24:56.465Z,1023.75
2022-08-30T05:25:56.659Z,1023.80
2022-08-30T05:26:56.829Z,1023.77
2022-08-30T05:27:57.012Z,1023.81
2022-08-30T05:28:57.179Z,1023.83
2022-08-30T05:29:57.378Z,1023.82
2022-08-30T05:30:57.653Z,1023.83
2022-08-30T05:31:57.750Z,1023.88
2022-08-30T05:32:57.929Z,1023.88
2022-08-30T05:33:58.118Z,1023.89
2022-08-30T05:34:58.289Z,1023.89
2022-08-30T05:35:58.487Z,1023.89
2022-08-30T05:36:58.639Z,1023.82
2022-08-30T05:37:58.819Z,1023.84
2022-08-30T05:38:58.999Z,1023.86
2022-08-30T05:39:59.212Z,1023.88
2022-08-30T05:40:59.350Z,1023.84
2022-08-30T05:41:59.519Z,1023.84
2022-08-30T05:42:59.700Z,1023.86
2022-08-30T05:43:59.888Z,1023.88
2022-08-30T05:45:00.071Z,1023.88
2022-08-30T05:46:00.267Z,1023.91
2022-08-30T05:47:00.411Z,1023.91
2022-08-30T05:48:00.590Z,1023.90
2022-08-30T05:49:00.771Z,1023.88
2022-08-30T05:50:00.949Z,1023.89
2022-08-30T05:51:01.141Z,1023.88
2022-08-30T05:52:01.331Z,1023.93
2022-08-30T05:53:01.480Z,1023.88
2022-08-30T05:54:01.659Z,1023.89
2022-08-30T05:55:01.831Z,1023.89
2022-08-30T05:56:02.023Z,1023.89
2022-08-30T05:57:02.170Z,1023.89
2022-08-30T05:58:02.351Z,1023.96
2022-08-30T05:59:02.530Z,1023.94
2022-08-30T06:00:02.710Z,1023.99
2022-08-30T06:01:02.900Z,1023.98
2022-08-30T06:02:03.134Z,1023.96
2022-08-30T06:03:03.288Z,1023.98
2022-08-30T06:04:04.266Z,1023.97
2022-08-30T06:05:03.581Z,1023.97
2022-08-30T06:06:03.781Z,1024.00
2022-08-30T06:07:03.951Z,1023.97
2022-08-30T06:08:04.130Z,1023.99
2022-08-30T06:09:05.146Z,1023.97
2022-08-30T06:10:04.503Z,1023.91
2022-08-30T06:11:04.673Z,1023.93
2022-08-30T06:12:04.821Z,1023.92
2022-08-30T06:13:05.001Z,1023.92
2022-08-30T06:14:05.191Z,1023.93
2022-08-30T06:15:05.368Z,1023.95
2022-08-30T06:16:05.642Z,1023.93
2022-08-30T06:17:05.751Z,1023.94
2022-08-30T06:18:05.900Z,1024.01
2022-08-30T06:19:06.073Z,1023.99
2022-08-30T06:20:06.251Z,1023.99
2022-08-30T06:21:06.451Z,1023.98
2022-08-30T06:22:06.606Z,1023.97
2022-08-30T06:23:06.784Z,1023.94
2022-08-30T06:24:06.984Z,1023.96
2022-08-30T06:25:07.112Z,1023.99
2022-08-30T06:26:07.322Z,1024.02
2022-08-30T06:27:07.452Z,1024.00
2022-08-30T06:28:07.652Z,1023.99
2022-08-30T06:29:07.802Z,1023.97
2022-08-30T06:30:07.962Z,1023.99
2022-08-30T06:31:08.239Z,1023.99
2022-08-30T06:32:08.341Z,1024.02
2022-08-30T06:33:08.512Z,1024.03
2022-08-30T06:34:08.694Z,1024.05
2022-08-30T06:35:08.874Z,1024.06
2022-08-30T06:36:09.074Z,1024.03
2022-08-30T06:37:09.245Z,1024.06
2022-08-30T06:38:09.440Z,1024.12
2022-08-30T06:39:09.583Z,1024.08
2022-08-30T06:40:09.787Z,1024.05
2022-08-30T06:41:09.933Z,1024.07
2022-08-30T06:42:10.084Z,1024.11
2022-08-30T06:43:10.250Z,1024.09
2022-08-30T06:44:10.433Z,1024.15
2022-08-30T06:45:11.299Z,1024.12
2022-08-30T06:46:10.874Z,1024.13
2022-08-30T06:47:10.954Z,1024.12
2022-08-30T06:48:11.134Z,1024.12
2022-08-30T06:49:11.314Z,1024.06
2022-08-30T06:50:12.024Z,1024.06
2022-08-30T06:51:11.704Z,1024.08
2022-08-30T06:52:11.917Z,1024.08
2022-08-30T06:53:12.055Z,1024.07
2022-08-30T06:54:12.330Z,1024.09
2022-08-30T06:55:12.403Z,1024.08
2022-08-30T06:56:16.442Z,1024.08
2022-08-30T06:57:12.774Z,1024.07
2022-08-30T06:58:12.979Z,1024.06
2022-08-30T06:59:13.163Z,1024.05
2022-08-30T07:00:13.337Z,1024.04
2022-08-30T07:01:13.535Z,1024.06
2022-08-30T07:02:13.734Z,1024.00
2022-08-30T07:03:13.882Z,1024.03
2022-08-30T07:04:14.025Z,1024.05
2022-08-30T07:05:18.526Z,1024.07
2022-08-30T07:06:14.395Z,1024.06
2022-08-30T07:07:14.558Z,1024.03
2022-08-30T07:08:14.716Z,1024.03
2022-08-30T07:09:14.888Z,1024.01
2022-08-30T07:10:15.059Z,1024.04
2022-08-30T07:11:15.246Z,1024.05
2022-08-30T07:12:15.395Z,1024.05
2022-08-30T07:13:15.663Z,1024.07
2022-08-30T07:14:15.751Z,1024.08
2022-08-30T07:15:15.936Z,1024.08
2022-08-30T07:16:16.206Z,1024.12
2022-08-30T07:17:16.286Z,1024.06
2022-08-30T07:18:16.457Z,1024.04
2022-08-30T07:19:20.822Z,1024.04
2022-08-30T07:20:16.819Z,1024.06
2022-08-30T07:21:16.997Z,1023.98
2022-08-30T07:22:17.180Z,1024.00
2022-08-30T07:23:17.481Z,1023.99
2022-08-30T07:24:17.528Z,1024.02
2022-08-30T07:25:17.669Z,1024.02
2022-08-30T07:26:17.879Z,1023.97
2022-08-30T07:27:18.044Z,1023.99
2022-08-30T07:28:18.198Z,1024.00
2022-08-30T07:29:18.378Z,1023.97
2022-08-30T07:30:18.529Z,1023.95
2022-08-30T07:31:18.768Z,1023.96
2022-08-30T07:32:18.892Z,1023.98
2022-08-30T07:33:19.387Z,1023.98
2022-08-30T07:34:20.475Z,1023.96
2022-08-30T07:35:19.409Z,1023.98
2022-08-30T07:36:19.598Z,1024.02
2022-08-30T07:37:19.769Z,1024.03
2022-08-30T07:38:19.974Z,1024.04
2022-08-30T07:39:20.151Z,1024.04
2022-08-30T07:40:20.375Z,1024.07
2022-08-30T07:41:20.530Z,1024.08
2022-08-30T07:42:20.706Z,1024.11
2022-08-30T07:43:20.861Z,1024.12
2022-08-30T07:44:25.000Z,1024.10
2022-08-30T07:45:21.247Z,1024.13
2022-08-30T07:46:21.428Z,1024.15
2022-08-30T07:47:21.591Z,1024.14
2022-08-30T07:48:21.751Z,1024.09
2022-08-30T07:49:21.950Z,1024.08
2022-08-30T07:50:22.101Z,1024.09
2022-08-30T07:51:22.311Z,1024.12
2022-08-30T07:52:22.472Z,1024.06
2022-08-30T07:53:22.653Z,1024.08
2022-08-30T07:54:22.852Z,1024.06
2022-08-30T07:55:22.996Z,1023.97
2022-08-30T07:56:23.202Z,1024.00
2022-08-30T07:57:23.360Z,1024.00
2022-08-30T07:58:23.524Z,1024.02
2022-08-30T07:59:23.715Z,1024.00
2022-08-30T08:00:23.933Z,1023.98
2022-08-30T08:01:24.146Z,1023.91
2022-08-30T08:02:24.291Z,1023.85
2022-08-30T08:03:24.404Z,1023.89
2022-08-30T08:04:24.585Z,1023.86
2022-08-30T08:05:25.079Z,1023.94
2022-08-30T08:06:24.951Z,1023.94
2022-08-30T08:07:25.086Z,1023.90
2022-08-30T08:08:25.262Z,1023.92
2022-08-30T08:09:25.445Z,1023.86
2022-08-30T08:10:25.651Z,1023.81
2022-08-30T08:11:28.361Z,1023.84
2022-08-30T08:12:25.956Z,1023.85
2022-08-30T08:13:28.665Z,1023.80
2022-08-30T08:14:27.329Z,1023.83
2022-08-30T08:15:26.465Z,1023.83
2022-08-30T08:16:26.641Z,1023.85
2022-08-30T08:17:26.818Z,1023.80
2022-08-30T08:18:26.987Z,1023.81
2022-08-30T08:19:27.149Z,1023.79
2022-08-30T08:20:27.338Z,1023.87
2022-08-30T08:21:27.528Z,1023.90
2022-08-30T08:22:27.658Z,1023.87
2022-08-30T08:23:27.829Z,1023.95
2022-08-30T08:24:28.007Z,1023.98
2022-08-30T08:25:28.178Z,1023.89
2022-08-30T08:26:28.382Z,1023.99
2022-08-30T08:27:28.520Z,1024.02
2022-08-30T08:28:28.728Z,1024.02
2022-08-30T08:29:28.870Z,1024.00
2022-08-30T08:30:29.030Z,1024.03
2022-08-30T08:31:33.153Z,1024.05
2022-08-30T08:32:29.395Z,1024.10
2022-08-30T08:33:29.565Z,1024.07
2022-08-30T08:34:29.711Z,1024.09
2022-08-30T08:35:29.890Z,1024.10
2022-08-30T08:36:30.062Z,1024.13
2022-08-30T08:37:30.211Z,1024.12
2022-08-30T08:38:30.381Z,1024.09
2022-08-30T08:39:30.561Z,1024.09
2022-08-30T08:40:30.793Z,1024.16
2022-08-30T08:41:30.940Z,1024.15
2022-08-30T08:42:31.093Z,1024.18
2022-08-30T08:43:31.281Z,1024.14
2022-08-30T08:44:34.622Z,1024.08
2022-08-30T08:45:31.644Z,1024.08
2022-08-30T08:46:31.848Z,1024.17
2022-08-30T08:47:31.953Z,1024.06
2022-08-30T08:48:45.568Z,1024.08
2022-08-30T08:49:33.302Z,1024.05
2022-08-30T08:50:32.497Z,1024.03
2022-08-30T08:51:32.674Z,1023.93
2022-08-30T08:52:32.857Z,1024.00
2022-08-30T08:53:46.287Z,1024.04
2022-08-30T08:54:34.245Z,1023.93
2022-08-30T08:55:33.437Z,1023.97
2022-08-30T08:56:33.577Z,1024.07
2022-08-30T08:57:33.776Z,1024.04
2022-08-30T08:58:33.946Z,1024.02
2022-08-30T08:59:34.179Z,1024.03
2022-08-30T09:00:34.353Z,1023.99
2022-08-30T09:01:34.545Z,1023.96
2022-08-30T09:02:34.668Z,1023.98
2022-08-30T09:03:34.848Z,1023.86
2022-08-30T09:04:35.067Z,1023.90
2022-08-30T09:05:35.277Z,1023.93
2022-08-30T09:06:35.377Z,1023.94
2022-08-30T09:07:35.577Z,1023.96
2022-08-30T09:08:35.708Z,1023.96
2022-08-30T09:09:35.906Z,1023.98
2022-08-30T09:10:49.921Z,1023.90
2022-08-30T09:11:37.229Z,1023.91
2022-08-30T09:12:36.391Z,1023.92
2022-08-30T09:13:36.569Z,1023.94
2022-08-30T09:14:38.809Z,1024.03
2022-08-30T09:15:36.970Z,1024.04
2022-08-30T09:16:37.093Z,1024.06
2022-08-30T09:17:37.280Z,1024.10
2022-08-30T09:18:37.440Z,1024.11
2022-08-30T09:19:37.631Z,1024.07
2022-08-30T09:20:37.793Z,1024.13
2022-08-30T09:21:37.959Z,1024.15
2022-08-30T09:22:38.132Z,1024.14
2022-08-30T09:23:38.341Z,1024.21
2022-08-30T09:24:38.482Z,1024.18
2022-08-30T09:25:41.907Z,1024.21
2022-08-30T09:26:38.854Z,1024.20
2022-08-30T09:27:39.040Z,1024.21
2022-08-30T09:28:39.212Z,1024.18
2022-08-30T09:29:39.403Z,1024.18
2022-08-30T09:30:39.604Z,1024.15
2022-08-30T09:31:39.755Z,1024.17
2022-08-30T09:32:39.934Z,1024.19
2022-08-30T09:33:40.114Z,1024.16
2022-08-30T09:34:40.291Z,1024.18
2022-08-30T09:35:40.486Z,1024.15
2022-08-30T09:36:40.658Z,1024.15
2022-08-30T09:37:40.864Z,1024.10
2022-08-30T09:38:41.004Z,1024.07
2022-08-30T09:39:41.185Z,1024.09
2022-08-30T09:40:41.448Z,1024.10
2022-08-30T09:41:41.545Z,1024.10
2022-08-30T09:42:41.716Z,1024.09
2022-08-30T09:43:41.927Z,1024.03
2022-08-30T09:44:42.067Z,1024.05
2022-08-30T09:45:42.778Z,1024.03
2022-08-30T09:46:42.443Z,1023.94
2022-08-30T09:47:42.607Z,1023.94
2022-08-30T09:48:42.779Z,1023.93
2022-08-30T09:49:42.998Z,1023.94
2022-08-30T09:50:43.154Z,1023.93
2022-08-30T09:51:43.319Z,1023.87
2022-08-30T09:52:43.509Z,1024.00
2022-08-30T09:54:44.832Z,1023.94
2022-08-30T09:55:44.049Z,1023.94
2022-08-30T09:56:44.189Z,1023.95
2022-08-30T09:57:44.371Z,1023.94
2022-08-30T09:58:44.539Z,1023.97
2022-08-30T09:59:44.710Z,1023.99
2022-08-30T10:00:44.920Z,1023.89
2022-08-30T10:01:45.123Z,1023.97
2022-08-30T10:02:45.247Z,1023.90
2022-08-30T10:03:45.427Z,1023.84
2022-08-30T10:04:45.602Z,1023.78
2022-08-30T10:05:45.801Z,1023.79
2022-08-30T10:06:45.959Z,1023.81
2022-08-30T10:07:46.143Z,1023.75
2022-08-30T10:08:46.342Z,1023.79
2022-08-30T10:09:46.502Z,1023.76
2022-08-30T10:10:46.700Z,1023.70
2022-08-30T10:11:46.852Z,1023.74
2022-08-30T10:12:47.032Z,1023.76
2022-08-30T10:13:47.397Z,1023.82
2022-08-30T10:14:47.380Z,1023.79
2022-08-30T10:15:47.583Z,1023.86
2022-08-30T10:16:47.724Z,1023.88
2022-08-30T10:17:47.903Z,1023.74
2022-08-30T10:18:48.075Z,1023.79
2022-08-30T10:19:48.264Z,1023.70
2022-08-30T10:20:48.432Z,1023.76
2022-08-30T10:21:48.594Z,1023.76
2022-08-30T10:22:48.764Z,1023.78
2022-08-30T10:23:48.958Z,1023.77
2022-08-30T10:24:49.125Z,1023.76
2022-08-30T10:25:49.305Z,1023.79
2022-08-30T10:26:49.455Z,1023.82
2022-08-30T10:27:49.635Z,1023.78
2022-08-30T10:28:50.385Z,1023.81
2022-08-30T10:29:49.984Z,1023.77
2022-08-30T10:30:50.807Z,1023.74
2022-08-30T10:31:50.316Z,1023.74
2022-08-30T10:32:50.476Z,1023.76
2022-08-30T10:33:50.656Z,1023.72
2022-08-30T10:34:50.807Z,1023.81
2022-08-30T10:35:50.997Z,1023.80
2022-08-30T10:36:51.155Z,1023.78
2022-08-30T10:37:51.489Z,1023.77
2022-08-30T10:38:51.499Z,1023.83
2022-08-30T10:39:51.678Z,1023.86
2022-08-30T10:40:51.877Z,1023.87
2022-08-30T10:41:52.096Z,1023.88
2022-08-30T10:42:52.207Z,1023.85
2022-08-30T10:43:52.737Z,1023.85
2022-08-30T10:44:52.571Z,1023.82
2022-08-30T10:45:52.747Z,1023.81
2022-08-30T10:46:52.878Z,1023.79
2022-08-30T10:47:53.068Z,1023.79
2022-08-30T10:48:53.208Z,1023.85
2022-08-30T10:49:53.440Z,1023.85
2022-08-30T10:50:53.602Z,1023.78
2022-08-30T10:51:53.729Z,1023.82
2022-08-30T10:52:53.881Z,1023.74
2022-08-30T10:53:54.060Z,1023.76
2022-08-30T10:54:54.250Z,1023.79
2022-08-30T10:55:54.411Z,1023.80
2022-08-30T10:56:54.572Z,1023.78
2022-08-30T10:57:54.722Z,1023.78
2022-08-30T10:58:54.905Z,1023.75
2022-08-30T10:59:55.081Z,1023.77
2022-08-30T11:00:55.335Z,1023.73
2022-08-30T11:01:55.442Z,1023.77
2022-08-30T11:02:55.641Z,1023.66
2022-08-30T11:03:55.821Z,1023.72
2022-08-30T11:04:56.001Z,1023.73
2022-08-30T11:05:56.211Z,1023.75
2022-08-30T11:06:56.344Z,1023.79
2022-08-30T11:07:56.531Z,1023.77
2022-08-30T11:08:56.702Z,1023.78
2022-08-30T11:09:56.916Z,1023.80
2022-08-30T11:10:57.064Z,1023.76
2022-08-30T11:11:57.222Z,1023.74
2022-08-30T11:12:57.392Z,1023.74
2022-08-30T11:14:00.270Z,1023.73
2022-08-30T11:14:58.722Z,1023.72
2022-08-30T11:15:57.931Z,1023.78
2022-08-30T11:16:58.109Z,1023.75
2022-08-30T11:17:58.254Z,1023.75
2022-08-30T11:18:58.443Z,1023.76
2022-08-30T11:19:58.634Z,1023.80
2022-08-30T11:20:58.823Z,1023.76
2022-08-30T11:21:58.993Z,1023.76
2022-08-30T11:22:59.174Z,1023.74
2022-08-30T11:23:59.353Z,1023.74
2022-08-30T11:24:59.541Z,1023.72
2022-08-30T11:25:59.749Z,1023.72
2022-08-30T11:26:59.914Z,1023.74
2022-08-30T11:28:00.088Z,1023.71
2022-08-30T11:29:00.264Z,1023.66
2022-08-30T11:30:00.442Z,1023.67
2022-08-30T11:31:00.660Z,1023.68
2022-08-30T11:32:00.782Z,1023.68
2022-08-30T11:33:00.962Z,1023.66
2022-08-30T11:34:01.192Z,1023.60
2022-08-30T11:35:01.345Z,1023.62
2022-08-30T11:36:01.545Z,1023.55
2022-08-30T11:37:01.665Z,1023.61
2022-08-30T11:38:01.863Z,1023.59
2022-08-30T11:39:02.005Z,1023.55
2022-08-30T11:40:04.093Z,1023.51
2022-08-30T11:41:02.376Z,1023.51
2022-08-30T11:42:02.535Z,1023.48
2022-08-30T11:43:02.717Z,1023.46
2022-08-30T11:44:02.886Z,1023.42
2022-08-30T11:45:03.090Z,1023.41
2022-08-30T11:46:03.330Z,1023.37
2022-08-30T11:47:05.169Z,1023.35
2022-08-30T11:48:04.321Z,1023.37
2022-08-30T11:49:03.816Z,1023.38
2022-08-30T11:50:09.890Z,1023.37
2022-08-30T11:51:05.213Z,1023.40
2022-08-30T11:53:05.537Z,1023.39
2022-08-30T11:54:04.668Z,1023.36
2022-08-30T11:55:04.837Z,1023.36
2022-08-30T11:56:04.997Z,1023.40
2022-08-30T11:57:05.212Z,1023.41
2022-08-30T11:58:05.358Z,1023.38
2022-08-30T11:59:05.561Z,1023.33
2022-08-30T12:00:05.727Z,1023.34
2022-08-30T12:01:05.947Z,1023.33
2022-08-30T12:02:06.452Z,1023.37
2022-08-30T12:03:06.444Z,1023.34
2022-08-30T12:04:06.400Z,1023.36
2022-08-30T12:05:06.784Z,1023.37
2022-08-30T12:06:06.739Z,1023.38
2022-08-30T12:07:06.890Z,1023.41
2022-08-30T12:08:07.050Z,1023.43
2022-08-30T12:09:08.141Z,1023.37